首页
METAR-TAF:

METAR-TAF

机场 :

Lincolnton-Lincoln County Regional Airport

Lincolnton, 北卡罗来纳州, 美国

纬度: 35-28-59N, 经度: 081-09-41W, 海拔: 267米

当前天气观测

该预报发布于17分钟前的01:55 UTC
风速3节,风向南转西南
温度 24°C
湿度 89%
气压 1015 hPa
能見度: 16.1公里
天空无云

METAR: KIPJ 220155Z AUTO 21003KT 10SM CLR 24/22 A2997 RMK AO2 T02370217

时间: 22:12 (02:12 UTC)


TAF: 丢失

超过4000个机场的气象观测和天气预报(METAR&TAF报告)。

可查询的气象台以黄色和红色小点在地图上表示。

将鼠标移到小点上方,可查看气象台名称。

然后点击查看天气观测和预报。

如需切换地图:点击带黑十字的绿色按钮放大地图;点击带横线的绿色按钮缩小地图;或者点击绿色箭头查看邻近地区的地图。


METAR-TAF: